createdAt,value
2023-08-07T00:01:22.878Z,95357.91
2023-08-07T00:03:49.675Z,95368.25
2023-08-07T00:06:16.399Z,95369.03
2023-08-07T00:08:43.178Z,95375.28
2023-08-07T00:11:11.895Z,95378.72
2023-08-07T00:13:38.797Z,95356.06
2023-08-07T00:16:05.627Z,95377.91
2023-08-07T00:18:32.436Z,95373.81
2023-08-07T00:20:59.256Z,95372.19
2023-08-07T00:23:25.925Z,95385.34
2023-08-07T00:25:52.656Z,95380.88
2023-08-07T00:28:20.793Z,95386.91
2023-08-07T00:30:47.516Z,95385.69
2023-08-07T00:33:14.333Z,95381.03
2023-08-07T00:35:41.030Z,95380.03
2023-08-07T00:38:07.757Z,95378.41
2023-08-07T00:40:38.110Z,95391.31
2023-08-07T00:43:04.872Z,95381.59
2023-08-07T00:45:36.171Z,95378.25
2023-08-07T00:48:03.049Z,95386.28
2023-08-07T00:50:45.999Z,95382.41
2023-08-07T00:53:14.178Z,95390.22
2023-08-07T00:55:40.924Z,95398.88
2023-08-07T00:58:07.616Z,95396.03
2023-08-07T01:00:35.745Z,95388.47
2023-08-07T01:03:02.735Z,95382.78
2023-08-07T01:05:29.606Z,95381.16
2023-08-07T01:07:56.406Z,95385.16
2023-08-07T01:10:40.474Z,95387.78
2023-08-07T01:13:13.341Z,95380.31
2023-08-07T01:15:41.542Z,95382.72
2023-08-07T01:18:08.888Z,95382.94
2023-08-07T01:20:35.939Z,95394.38
2023-08-07T01:23:04.134Z,95396.16
2023-08-07T01:25:31.196Z,95387.06
2023-08-07T01:28:04.094Z,95393.88
2023-08-07T01:30:36.803Z,95397.22
2023-08-07T01:33:10.410Z,95404.44
2023-08-07T01:35:42.481Z,95405.44
2023-08-07T01:38:12.395Z,95412.88
2023-08-07T01:40:40.390Z,95408.56
2023-08-07T01:43:07.096Z,95410.19
2023-08-07T01:45:33.991Z,95411.03
2023-08-07T01:48:01.216Z,95415.81
2023-08-07T01:50:28.517Z,95413.38
2023-08-07T01:52:55.206Z,95410.75
2023-08-07T01:55:23.882Z,95400.03
2023-08-07T01:57:50.775Z,95408.13
2023-08-07T02:00:17.814Z,95417.00
2023-08-07T02:02:44.731Z,95415.00
2023-08-07T02:05:11.545Z,95423.22
2023-08-07T02:07:38.292Z,95420.97
2023-08-07T02:10:05.469Z,95415.38
2023-08-07T02:12:33.548Z,95420.25
2023-08-07T02:15:00.362Z,95414.00
2023-08-07T02:17:28.385Z,95417.00
2023-08-07T02:19:55.106Z,95428.72
2023-08-07T02:22:21.875Z,95429.09
2023-08-07T02:24:48.696Z,95432.97
2023-08-07T02:27:15.432Z,95426.66
2023-08-07T02:29:43.707Z,95432.59
2023-08-07T02:32:10.409Z,95428.16
2023-08-07T02:34:37.144Z,95435.22
2023-08-07T02:37:04.282Z,95431.22
2023-08-07T02:39:31.033Z,95432.09
2023-08-07T02:41:57.721Z,95442.38
2023-08-07T02:44:24.549Z,95448.44
2023-08-07T02:46:52.711Z,95435.16
2023-08-07T02:49:19.503Z,95448.25
2023-08-07T02:51:46.344Z,95441.84
2023-08-07T02:54:13.045Z,95443.91
2023-08-07T02:56:39.774Z,95450.78
2023-08-07T02:59:06.502Z,95448.38
2023-08-07T03:01:33.324Z,95449.22
2023-08-07T03:04:01.453Z,95443.97
2023-08-07T03:06:28.156Z,95448.84
2023-08-07T03:08:54.836Z,95457.28
2023-08-07T03:11:21.537Z,95455.69
2023-08-07T03:13:48.293Z,95457.31
2023-08-07T03:16:15.161Z,95455.34
2023-08-07T03:18:41.916Z,95455.94
2023-08-07T03:21:10.072Z,95450.88
2023-08-07T03:23:36.763Z,95451.75
2023-08-07T03:26:17.417Z,95457.00
2023-08-07T03:28:45.472Z,95455.63
2023-08-07T03:31:12.523Z,95458.03
2023-08-07T03:33:39.265Z,95457.06
2023-08-07T03:36:06.211Z,95469.97
2023-08-07T03:38:34.303Z,95462.53
2023-08-07T03:41:01.029Z,95458.72
2023-08-07T03:43:27.751Z,95468.19
2023-08-07T03:45:55.670Z,95474.88
2023-08-07T03:48:22.478Z,95469.63
2023-08-07T03:50:49.403Z,95472.09
2023-08-07T03:53:16.183Z,95468.47
2023-08-07T03:55:44.442Z,95470.28
2023-08-07T03:58:11.186Z,95473.28
2023-08-07T04:00:37.936Z,95480.59
2023-08-07T04:03:06.701Z,95482.97
2023-08-07T04:05:34.706Z,95480.50
2023-08-07T04:08:01.487Z,95484.63
2023-08-07T04:10:28.210Z,95484.59
2023-08-07T04:12:56.550Z,95480.59
2023-08-07T04:15:23.282Z,95483.38
2023-08-07T04:17:50.065Z,95480.13
2023-08-07T04:20:17.032Z,95494.25
2023-08-07T04:22:43.880Z,95486.00
2023-08-07T04:25:11.082Z,95474.72
2023-08-07T04:27:37.909Z,95479.56
2023-08-07T04:30:07.259Z,95482.41
2023-08-07T04:32:34.034Z,95475.78
2023-08-07T04:35:00.783Z,95483.25
2023-08-07T04:37:27.485Z,95496.97
2023-08-07T04:39:54.229Z,95494.81
2023-08-07T04:42:20.972Z,95486.13
2023-08-07T04:44:47.895Z,95490.97
2023-08-07T04:47:15.984Z,95508.13
2023-08-07T04:49:42.766Z,95498.47
2023-08-07T04:52:20.597Z,95495.22
2023-08-07T04:54:52.577Z,95493.63
2023-08-07T04:57:19.520Z,95509.84
2023-08-07T04:59:46.295Z,95500.59
2023-08-07T05:02:13.102Z,95511.44
2023-08-07T05:04:41.277Z,95517.94
2023-08-07T05:07:08.127Z,95522.19
2023-08-07T05:09:34.869Z,95527.59
2023-08-07T05:12:01.678Z,95524.97
2023-08-07T05:14:28.447Z,95528.63
2023-08-07T05:16:55.351Z,95534.09
2023-08-07T05:19:22.336Z,95528.41
2023-08-07T05:21:50.630Z,95531.44
2023-08-07T05:24:17.433Z,95535.06
2023-08-07T05:26:44.221Z,95527.56
2023-08-07T05:29:10.968Z,95540.13
2023-08-07T05:31:37.702Z,95547.19
2023-08-07T05:34:04.650Z,95538.69
2023-08-07T05:36:31.396Z,95534.84
2023-08-07T05:38:59.557Z,95536.44
2023-08-07T05:41:26.260Z,95538.88
2023-08-07T05:43:53.021Z,95547.31
2023-08-07T05:46:20.000Z,95559.88
2023-08-07T05:48:46.849Z,95548.38
2023-08-07T05:51:13.661Z,95541.31
2023-08-07T05:53:40.533Z,95553.66
2023-08-07T05:56:08.703Z,95549.22
2023-08-07T05:58:35.507Z,95559.97
2023-08-07T06:01:02.254Z,95573.91
2023-08-07T06:03:29.016Z,95565.66
2023-08-07T06:05:55.943Z,95566.47
2023-08-07T06:08:22.774Z,95559.78
2023-08-07T06:10:49.607Z,95562.03
2023-08-07T06:13:30.391Z,95567.28
2023-08-07T06:15:57.624Z,95576.25
2023-08-07T06:18:24.388Z,95581.72
2023-08-07T06:20:51.258Z,95574.72
2023-08-07T06:23:18.083Z,95575.75
2023-08-07T06:25:44.813Z,95575.81
2023-08-07T06:28:11.687Z,95580.44
2023-08-07T06:30:39.830Z,95572.81
2023-08-07T06:33:06.732Z,95586.09
2023-08-07T06:35:38.792Z,95588.53
2023-08-07T06:38:05.717Z,95571.66
2023-08-07T06:40:32.474Z,95575.63
2023-08-07T06:42:59.196Z,95582.56
2023-08-07T06:45:26.017Z,95579.16
2023-08-07T06:47:54.283Z,95583.84
2023-08-07T06:50:21.317Z,95589.34
2023-08-07T06:52:48.131Z,95587.78
2023-08-07T06:55:15.025Z,95588.59
2023-08-07T06:57:41.838Z,95581.34
2023-08-07T07:00:09.754Z,95584.00
2023-08-07T07:02:36.517Z,95578.59
2023-08-07T07:05:05.161Z,95588.34
2023-08-07T07:07:31.981Z,95592.81
2023-08-07T07:09:58.917Z,95582.63
2023-08-07T07:12:25.720Z,95588.50
2023-08-07T07:14:52.463Z,95597.19
2023-08-07T07:17:19.197Z,95605.09
2023-08-07T07:19:46.135Z,95609.41
2023-08-07T07:22:14.432Z,95609.59
2023-08-07T07:24:41.274Z,95623.56
2023-08-07T07:27:08.086Z,95631.63
2023-08-07T07:29:34.983Z,95622.56
2023-08-07T07:32:01.881Z,95629.25
2023-08-07T07:34:28.838Z,95626.03
2023-08-07T07:36:55.612Z,95624.59
2023-08-07T07:39:23.911Z,95623.78
2023-08-07T07:41:50.633Z,95635.72
2023-08-07T07:44:17.430Z,95625.41
2023-08-07T07:46:44.314Z,95631.69
2023-08-07T07:49:11.035Z,95633.50
2023-08-07T07:51:37.846Z,95647.09
2023-08-07T07:54:14.296Z,95653.91
2023-08-07T07:56:43.568Z,95656.13
2023-08-07T07:59:10.384Z,95647.41
2023-08-07T08:01:37.157Z,95659.63
2023-08-07T08:04:04.175Z,95656.78
2023-08-07T08:06:31.004Z,95660.78
2023-08-07T08:08:58.020Z,95670.88
2023-08-07T08:11:24.789Z,95665.25
2023-08-07T08:13:53.052Z,95672.59
2023-08-07T08:16:19.868Z,95673.41
2023-08-07T08:18:46.623Z,95672.00
2023-08-07T08:21:13.337Z,95679.50
2023-08-07T08:23:40.433Z,95673.34
2023-08-07T08:26:07.211Z,95677.19
2023-08-07T08:28:34.083Z,95672.13
2023-08-07T08:31:02.239Z,95675.63
2023-08-07T08:33:29.031Z,95673.59
2023-08-07T08:35:55.790Z,95671.34
2023-08-07T08:38:22.486Z,95669.28
2023-08-07T08:40:53.090Z,95696.84
2023-08-07T08:43:20.422Z,95683.06
2023-08-07T08:45:47.791Z,95683.06
2023-08-07T08:48:20.862Z,95696.09
2023-08-07T08:50:47.671Z,95680.72
2023-08-07T08:53:18.010Z,95683.59
2023-08-07T08:55:52.310Z,95688.25
2023-08-07T08:58:19.445Z,95692.13
2023-08-07T09:00:49.516Z,95689.69
2023-08-07T09:03:17.976Z,95692.13
2023-08-07T09:05:44.972Z,95697.81
2023-08-07T09:08:11.927Z,95700.81
2023-08-07T09:10:39.411Z,95697.78
2023-08-07T09:13:13.613Z,95699.41
2023-08-07T09:15:40.866Z,95695.97
2023-08-07T09:18:07.873Z,95704.88
2023-08-07T09:20:36.481Z,95692.53
2023-08-07T09:23:05.193Z,95704.28
2023-08-07T09:25:32.793Z,95712.78
2023-08-07T09:27:59.668Z,95704.69
2023-08-07T09:30:27.983Z,95696.56
2023-08-07T09:32:54.818Z,95696.19
2023-08-07T09:35:22.729Z,95705.09
2023-08-07T09:37:51.162Z,95698.19
2023-08-07T09:40:18.774Z,95698.81
2023-08-07T09:42:45.638Z,95693.69
2023-08-07T09:45:22.090Z,95704.28
2023-08-07T09:47:58.043Z,95707.88
2023-08-07T09:50:25.401Z,95703.47
2023-08-07T09:52:58.028Z,95704.66
2023-08-07T09:55:25.158Z,95699.16
2023-08-07T09:57:52.367Z,95701.00
2023-08-07T10:00:19.441Z,95699.91
2023-08-07T10:02:47.146Z,95695.44
2023-08-07T10:05:14.573Z,95699.84
2023-08-07T10:07:41.850Z,95695.78
2023-08-07T10:10:11.208Z,95695.38
2023-08-07T10:12:38.488Z,95689.66
2023-08-07T10:15:06.046Z,95694.94
2023-08-07T10:17:33.590Z,95693.31
2023-08-07T10:20:00.414Z,95691.00
2023-08-07T10:22:29.332Z,95695.22
2023-08-07T10:24:58.426Z,95693.72
2023-08-07T10:27:27.415Z,95692.94
2023-08-07T10:29:55.070Z,95693.09
2023-08-07T10:32:23.509Z,95693.72
2023-08-07T10:34:51.560Z,95695.41
2023-08-07T10:37:34.267Z,95701.53
2023-08-07T10:40:02.725Z,95702.94
2023-08-07T10:42:34.496Z,95696.22
2023-08-07T10:45:02.449Z,95684.50
2023-08-07T10:47:34.585Z,95672.94
2023-08-07T10:50:01.470Z,95666.44
2023-08-07T10:52:28.974Z,95674.19
2023-08-07T10:54:55.703Z,95675.34
2023-08-07T10:57:22.440Z,95662.38
2023-08-07T11:00:03.382Z,95660.34
2023-08-07T11:02:31.429Z,95667.34
2023-08-07T11:05:03.295Z,95655.97
2023-08-07T11:07:31.374Z,95654.56
2023-08-07T11:09:59.604Z,95647.28
2023-08-07T11:12:33.567Z,95649.69
2023-08-07T11:15:01.677Z,95643.59
2023-08-07T11:17:31.215Z,95648.59
2023-08-07T11:19:58.066Z,95661.34
2023-08-07T11:22:25.642Z,95645.28
2023-08-07T11:24:52.851Z,95656.22
2023-08-07T11:27:22.196Z,95663.41
2023-08-07T11:29:49.092Z,95668.88
2023-08-07T11:32:17.453Z,95676.81
2023-08-07T11:34:49.418Z,95663.88
2023-08-07T11:37:16.896Z,95673.44
2023-08-07T11:39:43.901Z,95676.84
2023-08-07T11:42:10.859Z,95667.97
2023-08-07T11:44:37.580Z,95672.81
2023-08-07T11:47:04.742Z,95664.69
2023-08-07T11:49:33.015Z,95667.72
2023-08-07T11:51:59.850Z,95661.97
2023-08-07T11:54:27.816Z,95671.84
2023-08-07T11:56:54.806Z,95675.63
2023-08-07T11:59:21.848Z,95687.16
2023-08-07T12:01:48.810Z,95672.66
2023-08-07T12:04:15.679Z,95684.41
2023-08-07T12:06:55.290Z,95678.03
2023-08-07T12:09:22.524Z,95693.75
2023-08-07T12:11:49.266Z,95697.06
2023-08-07T12:14:16.888Z,95692.41
2023-08-07T12:16:45.341Z,95699.72
2023-08-07T12:19:12.126Z,95686.63
2023-08-07T12:21:38.995Z,95691.53
2023-08-07T12:24:07.997Z,95693.72
2023-08-07T12:26:34.742Z,95694.75
2023-08-07T12:29:01.487Z,95687.38
2023-08-07T12:31:28.298Z,95685.84
2023-08-07T12:33:55.832Z,95690.88
2023-08-07T12:36:25.512Z,95699.31
2023-08-07T12:38:57.109Z,95705.66
2023-08-07T12:43:57.635Z,95706.72
2023-08-07T12:48:57.430Z,95711.25
2023-08-07T12:51:46.320Z,95716.53
2023-08-07T12:54:13.162Z,95712.03
2023-08-07T12:56:45.341Z,95709.47
2023-08-07T12:59:12.158Z,95703.31
2023-08-07T13:01:38.941Z,95706.06
2023-08-07T13:04:44.199Z,95705.81
2023-08-07T13:07:13.604Z,95703.03
2023-08-07T13:09:40.416Z,95707.84
2023-08-07T13:12:09.027Z,95708.47
2023-08-07T13:14:35.760Z,95713.00
2023-08-07T13:17:02.752Z,95721.69
2023-08-07T13:19:29.525Z,95716.63
2023-08-07T13:21:56.671Z,95722.72
2023-08-07T13:24:23.699Z,95726.13
2023-08-07T13:26:50.470Z,95737.22
2023-08-07T13:29:18.607Z,95735.16
2023-08-07T13:31:45.360Z,95745.59
2023-08-07T13:34:12.137Z,95743.31
2023-08-07T13:36:39.198Z,95740.25
2023-08-07T13:39:11.226Z,95745.84
2023-08-07T13:41:41.136Z,95746.72
2023-08-07T13:44:18.536Z,95748.50
2023-08-07T13:50:11.953Z,95731.34
2023-08-07T13:52:41.776Z,95755.41
2023-08-07T13:55:09.082Z,95769.97
2023-08-07T13:57:35.911Z,95756.16
2023-08-07T14:00:05.254Z,95754.50
2023-08-07T14:02:32.208Z,95772.53
2023-08-07T14:04:58.965Z,95769.38
2023-08-07T14:07:27.104Z,95761.50
2023-08-07T14:09:54.007Z,95771.81
2023-08-07T14:12:58.329Z,95773.44
2023-08-07T14:15:25.194Z,95781.44
2023-08-07T14:21:02.227Z,95794.97
2023-08-07T14:47:32.743Z,95844.56
2023-08-07T14:49:59.478Z,95845.25
2023-08-07T14:52:26.353Z,95851.72
2023-08-07T14:54:59.208Z,95847.41
2023-08-07T14:57:26.059Z,95846.19
2023-08-07T14:59:52.784Z,95846.50
2023-08-07T15:02:19.823Z,95859.69
2023-08-07T15:04:48.066Z,95856.88
2023-08-07T15:07:15.197Z,95857.25
2023-08-07T15:09:42.273Z,95862.75
2023-08-07T15:12:11.434Z,95867.81
2023-08-07T15:14:38.244Z,95861.31
2023-08-07T15:17:05.765Z,95869.00
2023-08-07T15:19:33.604Z,95870.38
2023-08-07T15:22:01.794Z,95855.06
2023-08-07T15:24:28.691Z,95858.63
2023-08-07T15:26:58.694Z,95869.44
2023-08-07T15:29:26.840Z,95864.16
2023-08-07T15:31:53.718Z,95869.84
2023-08-07T15:34:20.597Z,95869.84
2023-08-07T15:36:51.505Z,95875.03
2023-08-07T15:39:19.686Z,95871.59
2023-08-07T15:41:46.524Z,95872.72
2023-08-07T15:44:13.341Z,95878.44
2023-08-07T15:46:40.347Z,95877.06
2023-08-07T15:49:07.116Z,95885.00
2023-08-07T15:51:34.010Z,95884.03
2023-08-07T15:54:00.800Z,95890.91
2023-08-07T15:56:30.646Z,95892.16
2023-08-07T15:58:57.420Z,95896.66
2023-08-07T16:01:24.239Z,95898.28
2023-08-07T16:03:51.084Z,95903.16
2023-08-07T16:06:17.852Z,95909.88
2023-08-07T16:08:44.720Z,95908.25
2023-08-07T16:11:11.422Z,95908.25
2023-08-07T16:13:39.728Z,95907.88
2023-08-07T16:16:06.598Z,95914.47
2023-08-07T16:18:33.482Z,95914.66
2023-08-07T16:21:00.798Z,95915.53
2023-08-07T16:23:27.558Z,95923.44
2023-08-07T16:25:54.322Z,95909.03
2023-08-07T16:28:21.069Z,95915.91
2023-08-07T16:30:49.244Z,95911.63
2023-08-07T16:33:15.953Z,95909.78
2023-08-07T16:35:42.663Z,95914.47
2023-08-07T16:38:09.628Z,95912.66
2023-08-07T16:40:36.359Z,95926.66
2023-08-07T16:43:03.315Z,95919.75
2023-08-07T16:45:30.085Z,95913.69
2023-08-07T16:47:59.343Z,95920.00
2023-08-07T16:50:26.139Z,95909.81
2023-08-07T16:52:52.980Z,95921.41
2023-08-07T16:55:19.882Z,95912.47
2023-08-07T16:57:46.592Z,95918.97
2023-08-07T17:00:14.514Z,95914.09
2023-08-07T17:02:41.366Z,95918.16
2023-08-07T17:05:10.282Z,95920.59
2023-08-07T17:07:37.046Z,95918.56
2023-08-07T17:10:04.299Z,95918.56
2023-08-07T17:12:31.004Z,95913.47
2023-08-07T17:14:57.813Z,95913.50
2023-08-07T17:17:24.690Z,95909.22
2023-08-07T17:19:51.454Z,95905.97
2023-08-07T17:22:19.539Z,95916.75
2023-08-07T17:24:46.276Z,95919.16
2023-08-07T17:27:13.033Z,95918.94
2023-08-07T17:29:39.748Z,95919.75
2023-08-07T17:32:07.099Z,95916.53
2023-08-07T17:34:33.886Z,95913.06
2023-08-07T17:37:01.162Z,95913.69
2023-08-07T17:39:29.554Z,95912.25
2023-08-07T17:41:56.244Z,95911.84
2023-08-07T17:44:23.063Z,95914.69
2023-08-07T17:46:49.791Z,95905.31
2023-08-07T17:49:16.670Z,95909.97
2023-08-07T17:51:43.448Z,95906.13
2023-08-07T17:54:10.243Z,95903.50
2023-08-07T17:56:38.530Z,95908.16
2023-08-07T17:59:05.311Z,95909.97
2023-08-07T18:01:32.101Z,95908.38
2023-08-07T18:03:58.885Z,95912.84
2023-08-07T18:06:25.644Z,95915.69
2023-08-07T18:08:52.444Z,95910.03
2023-08-07T18:11:19.479Z,95914.09
2023-08-07T18:13:47.994Z,95908.00
2023-08-07T18:16:15.167Z,95908.41
2023-08-07T18:18:41.940Z,95913.50
2023-08-07T18:21:08.751Z,95915.72
2023-08-07T18:23:35.502Z,95922.84
2023-08-07T18:26:02.233Z,95925.25
2023-08-07T18:28:28.981Z,95922.81
2023-08-07T18:30:57.201Z,95925.47
2023-08-07T18:33:23.998Z,95945.34
2023-08-07T18:35:50.708Z,95935.81
2023-08-07T18:38:17.459Z,95941.31
2023-08-07T18:40:44.218Z,95943.50
2023-08-07T18:43:10.921Z,95936.41
2023-08-07T18:45:37.640Z,95933.75
2023-08-07T18:48:07.595Z,95941.25
2023-08-07T18:50:34.351Z,95942.06
2023-08-07T18:53:01.321Z,95939.44
2023-08-07T18:55:28.091Z,95938.38
2023-08-07T18:57:55.385Z,95946.53
2023-08-07T19:00:22.185Z,95958.22
2023-08-07T19:02:48.949Z,95959.03
2023-08-07T19:05:17.201Z,95957.41
2023-08-07T19:07:44.151Z,95953.00
2023-08-07T19:10:11.495Z,95958.22
2023-08-07T19:12:38.316Z,95962.28
2023-08-07T19:15:05.894Z,95963.34
2023-08-07T19:17:32.719Z,95967.56
2023-08-07T19:19:59.555Z,95966.38
2023-08-07T19:22:27.858Z,95972.00
2023-08-07T19:24:54.578Z,95968.34
2023-08-07T19:27:21.454Z,95970.13
2023-08-07T19:29:48.244Z,95968.53
2023-08-07T19:32:15.632Z,95971.34
2023-08-07T19:34:42.377Z,95975.63
2023-08-07T19:37:11.968Z,95982.94
2023-08-07T19:39:40.137Z,95979.44
2023-08-07T19:42:07.320Z,95969.53
2023-08-07T19:44:34.159Z,95979.44
2023-08-07T19:47:00.900Z,95978.84
2023-08-07T19:49:30.854Z,95981.91
2023-08-07T19:52:01.576Z,95978.84
2023-08-07T19:54:28.291Z,95975.75
2023-08-07T19:56:56.809Z,95976.78
2023-08-07T19:59:26.541Z,95981.25
2023-08-07T20:01:53.343Z,95980.44
2023-08-07T20:04:23.210Z,95984.81
2023-08-07T20:06:50.013Z,95979.13
2023-08-07T20:09:16.880Z,95982.38
2023-08-07T20:11:43.675Z,95987.59
2023-08-07T20:14:11.915Z,95983.28
2023-08-07T20:16:38.727Z,95998.06
2023-08-07T20:19:05.483Z,95993.59
2023-08-07T20:21:32.333Z,95992.75
2023-08-07T20:23:59.097Z,95990.66
2023-08-07T20:26:26.035Z,95986.41
2023-08-07T20:28:52.841Z,95984.63
2023-08-07T20:31:20.967Z,95992.13
2023-08-07T20:33:47.709Z,95985.69
2023-08-07T20:36:14.527Z,95987.50
2023-08-07T20:38:41.612Z,95981.38
2023-08-07T20:41:08.440Z,95976.72
2023-08-07T20:43:35.188Z,95982.38
2023-08-07T20:46:02.586Z,95982.13
2023-08-07T20:48:34.069Z,95975.69
2023-08-07T20:51:00.785Z,95981.75
2023-08-07T20:53:27.711Z,95993.06
2023-08-07T20:56:03.232Z,95986.13
2023-08-07T20:58:29.997Z,95996.41
2023-08-07T21:00:59.915Z,95990.91
2023-08-07T21:03:36.878Z,95992.34
2023-08-07T21:06:06.781Z,95997.72
2023-08-07T21:08:47.964Z,95988.81
2023-08-07T21:11:14.899Z,95984.72
2023-08-07T21:13:41.791Z,95986.13
2023-08-07T21:16:08.561Z,95977.03
2023-08-07T21:18:36.667Z,95981.25
2023-08-07T21:21:03.435Z,95977.81
2023-08-07T21:23:30.139Z,95964.91
2023-08-07T21:25:57.013Z,95963.16
2023-08-07T21:28:23.786Z,95957.59
2023-08-07T21:30:50.812Z,95959.84
2023-08-07T21:33:17.634Z,95963.41
2023-08-07T21:35:45.754Z,95958.78
2023-08-07T21:38:12.511Z,95948.38
2023-08-07T21:40:39.210Z,95963.00
2023-08-07T21:43:05.948Z,95956.50
2023-08-07T21:45:32.687Z,95958.69
2023-08-07T21:47:59.563Z,95945.16
2023-08-07T21:50:26.378Z,95952.16
2023-08-07T21:52:54.664Z,95945.97
2023-08-07T21:55:21.417Z,95949.59
2023-08-07T21:57:48.242Z,95950.41
2023-08-07T22:00:15.598Z,95953.06
2023-08-07T22:02:42.747Z,95948.88
2023-08-07T22:05:10.300Z,95946.41
2023-08-07T22:07:37.124Z,95946.06
2023-08-07T22:10:05.734Z,95951.94
2023-08-07T22:12:32.515Z,95947.66
2023-08-07T22:14:59.259Z,95947.88
2023-08-07T22:17:25.991Z,95953.31
2023-08-07T22:20:04.013Z,95949.44
2023-08-07T22:22:31.827Z,95952.09
2023-08-07T22:24:58.616Z,95947.00
2023-08-07T22:27:26.949Z,95942.97
2023-08-07T22:29:53.698Z,95944.00
2023-08-07T22:32:20.565Z,95936.69
2023-08-07T22:34:47.321Z,95929.38
2023-08-07T22:37:14.060Z,95939.09
2023-08-07T22:39:40.823Z,95933.41
2023-08-07T22:42:08.241Z,95936.44
2023-08-07T22:44:36.570Z,95930.91
2023-08-07T22:47:03.783Z,95930.03
2023-08-07T22:49:31.055Z,95928.81
2023-08-07T22:51:58.218Z,95929.38
2023-08-07T22:54:25.397Z,95933.56
2023-08-07T22:56:52.173Z,95937.22
2023-08-07T22:59:18.875Z,95940.00
2023-08-07T23:01:47.007Z,95942.00
2023-08-07T23:04:13.755Z,95941.16
2023-08-07T23:06:40.529Z,95942.38
2023-08-07T23:09:07.257Z,95939.88
2023-08-07T23:11:34.016Z,95932.00
2023-08-07T23:14:00.789Z,95940.50
2023-08-07T23:16:27.653Z,95933.00
2023-08-07T23:18:55.756Z,95938.19
2023-08-07T23:21:22.674Z,95942.25
2023-08-07T23:23:49.542Z,95936.63
2023-08-07T23:26:16.282Z,95931.75
2023-08-07T23:28:43.033Z,95930.09
2023-08-07T23:31:09.737Z,95934.13
2023-08-07T23:33:36.631Z,95930.50
2023-08-07T23:36:05.018Z,95928.28
2023-08-07T23:38:31.792Z,95921.22
2023-08-07T23:40:59.060Z,95918.75
2023-08-07T23:43:25.812Z,95916.53
2023-08-07T23:45:52.580Z,95914.72
2023-08-07T23:48:19.256Z,95917.72
2023-08-07T23:50:45.990Z,95912.25
2023-08-07T23:53:14.107Z,95912.06
2023-08-07T23:55:40.849Z,95914.31
2023-08-07T23:58:09.613Z,95915.97
